createdAt,value
2024-02-01T00:01:46.301Z,21.83
2024-02-01T00:04:14.799Z,20.17
2024-02-01T00:06:44.210Z,19.73
2024-02-01T00:09:12.746Z,19.80
2024-02-01T00:11:42.816Z,18.23
2024-02-01T00:14:11.788Z,18.70
2024-02-01T00:16:40.220Z,17.90
2024-02-01T00:19:08.826Z,18.73
2024-02-01T00:21:37.405Z,19.73
2024-02-01T00:24:06.646Z,19.57
2024-02-01T00:26:35.189Z,19.17
2024-02-01T00:29:06.437Z,19.37
2024-02-01T00:31:37.801Z,17.90
2024-02-01T00:34:06.636Z,18.10
2024-02-01T00:36:35.172Z,16.57
2024-02-01T00:39:09.891Z,18.10
2024-02-01T00:41:38.348Z,17.20
2024-02-01T00:44:08.628Z,17.23
2024-02-01T00:46:37.720Z,17.43
2024-02-01T00:49:06.165Z,18.20
2024-02-01T00:51:34.660Z,18.90
2024-02-01T00:54:03.162Z,17.27
2024-02-01T00:56:31.746Z,17.20
2024-02-01T00:59:00.261Z,17.83
2024-02-01T01:01:30.129Z,17.70
2024-02-01T01:03:59.444Z,16.27
2024-02-01T01:06:29.177Z,17.37
2024-02-01T01:08:57.786Z,17.10
2024-02-01T01:11:27.137Z,17.80
2024-02-01T01:13:56.151Z,17.67
2024-02-01T01:16:25.145Z,19.47
2024-02-01T01:18:55.037Z,18.23
2024-02-01T01:21:23.675Z,18.00
2024-02-01T01:23:52.170Z,17.83
2024-02-01T01:26:24.309Z,16.93
2024-02-01T01:28:52.895Z,17.00
2024-02-01T01:31:21.357Z,18.40
2024-02-01T01:33:50.279Z,16.63
2024-02-01T01:36:20.345Z,16.70
2024-02-01T01:38:48.952Z,16.33
2024-02-01T01:41:17.586Z,17.17
2024-02-01T01:43:46.070Z,17.60
2024-02-01T01:46:14.572Z,17.50
2024-02-01T01:48:43.387Z,18.33
2024-02-01T01:51:12.307Z,18.77
2024-02-01T01:53:43.527Z,17.73
2024-02-01T01:56:14.173Z,17.43
2024-02-01T01:58:43.791Z,16.33
2024-02-01T02:01:13.947Z,16.70
2024-02-01T02:03:44.879Z,15.93
2024-02-01T02:06:13.393Z,17.23
2024-02-01T02:08:51.499Z,17.37
2024-02-01T02:11:20.095Z,19.27
2024-02-01T02:13:48.918Z,16.23
2024-02-01T02:16:18.295Z,18.27
2024-02-01T02:18:47.323Z,15.63
2024-02-01T02:21:20.828Z,16.70
2024-02-01T02:23:51.058Z,16.73
2024-02-01T02:26:19.699Z,15.67
2024-02-01T02:28:48.176Z,16.03
2024-02-01T02:31:16.578Z,15.33
2024-02-01T02:33:45.622Z,16.03
2024-02-01T02:36:14.214Z,15.70
2024-02-01T02:38:42.843Z,15.97
2024-02-01T02:41:12.934Z,15.90
2024-02-01T02:43:42.070Z,16.27
2024-02-01T02:46:10.437Z,15.50
2024-02-01T02:48:39.504Z,16.13
2024-02-01T02:51:09.037Z,16.07
2024-02-01T02:53:37.703Z,16.33
2024-02-01T02:56:08.558Z,16.17
2024-02-01T02:58:39.313Z,14.87
2024-02-01T03:01:09.498Z,15.77
2024-02-01T03:03:41.956Z,15.90
2024-02-01T03:06:11.339Z,15.43
2024-02-01T03:08:41.867Z,14.20
2024-02-01T03:11:11.948Z,14.50
2024-02-01T03:13:42.770Z,15.80
2024-02-01T03:16:19.260Z,14.87
2024-02-01T03:18:48.812Z,14.63
2024-02-01T03:21:19.177Z,15.20
2024-02-01T03:23:49.977Z,14.57
2024-02-01T03:26:19.223Z,15.43
2024-02-01T03:28:49.850Z,14.20
2024-02-01T03:31:22.261Z,13.80
2024-02-01T03:33:54.537Z,14.87
2024-02-01T03:36:23.030Z,13.43
2024-02-01T03:38:51.520Z,16.03
2024-02-01T03:41:20.463Z,13.07
2024-02-01T03:43:53.946Z,15.30
2024-02-01T03:46:24.257Z,15.00
2024-02-01T03:48:52.885Z,16.00
2024-02-01T03:51:21.721Z,14.33
2024-02-01T03:53:50.575Z,15.37
2024-02-01T03:56:25.013Z,16.20
2024-02-01T03:58:55.189Z,14.87
2024-02-01T04:01:26.136Z,15.23
2024-02-01T04:03:54.881Z,14.00
2024-02-01T04:06:24.854Z,14.67
2024-02-01T04:08:54.219Z,14.97
2024-02-01T04:11:22.963Z,14.57
2024-02-01T04:13:51.521Z,15.27
2024-02-01T04:16:21.675Z,15.83
2024-02-01T04:18:51.410Z,14.53
2024-02-01T04:21:20.557Z,14.50
2024-02-01T04:23:49.801Z,13.83
2024-02-01T04:26:22.304Z,13.83
2024-02-01T04:28:53.674Z,14.53
2024-02-01T04:31:25.733Z,14.03
2024-02-01T04:33:59.286Z,13.63
2024-02-01T04:36:29.152Z,13.60
2024-02-01T04:38:57.707Z,13.63
2024-02-01T04:41:26.178Z,13.40
2024-02-01T04:43:56.343Z,14.03
2024-02-01T04:46:26.711Z,12.50
2024-02-01T04:48:55.527Z,13.27
2024-02-01T04:51:24.118Z,13.27
2024-02-01T04:53:52.522Z,14.27
2024-02-01T04:56:21.104Z,13.33
2024-02-01T04:58:49.614Z,12.73
2024-02-01T05:01:18.185Z,13.10
2024-02-01T05:03:50.298Z,11.97
2024-02-01T05:06:20.963Z,12.27
2024-02-01T05:08:49.805Z,11.33
2024-02-01T05:11:21.274Z,10.77
2024-02-01T05:13:49.726Z,10.87
2024-02-01T05:16:18.275Z,11.33
2024-02-01T05:18:48.271Z,10.20
2024-02-01T05:21:17.008Z,10.50
2024-02-01T05:23:50.761Z,10.30
2024-02-01T05:26:19.444Z,10.80
2024-02-01T05:28:47.833Z,11.13
2024-02-01T05:31:16.453Z,10.23
2024-02-01T05:33:45.193Z,10.17
2024-02-01T05:36:15.489Z,9.93
2024-02-01T05:38:44.309Z,9.50
2024-02-01T05:41:14.052Z,9.67
2024-02-01T05:43:42.819Z,10.63
2024-02-01T05:46:15.983Z,9.53
2024-02-01T05:48:45.030Z,9.00
2024-02-01T05:51:15.781Z,9.93
2024-02-01T05:53:44.574Z,10.30
2024-02-01T05:56:13.717Z,10.47
2024-02-01T05:58:45.971Z,10.80
2024-02-01T06:01:18.570Z,9.53
2024-02-01T06:03:47.213Z,10.70
2024-02-01T06:06:17.243Z,11.30
2024-02-01T06:08:45.779Z,11.33
2024-02-01T06:11:14.330Z,12.53
2024-02-01T06:13:43.354Z,10.43
2024-02-01T06:16:14.242Z,10.30
2024-02-01T06:18:43.158Z,10.60
2024-02-01T06:21:18.290Z,10.80
2024-02-01T06:23:46.747Z,9.63
2024-02-01T06:26:22.344Z,9.67
2024-02-01T06:28:50.823Z,9.87
2024-02-01T06:31:19.720Z,10.30
2024-02-01T06:33:51.920Z,10.17
2024-02-01T06:36:25.344Z,10.67
2024-02-01T06:39:13.684Z,10.03
2024-02-01T06:42:03.223Z,9.73
2024-02-01T06:44:33.051Z,9.80
2024-02-01T06:47:13.686Z,9.10
2024-02-01T06:50:10.451Z,9.57
2024-02-01T06:52:44.759Z,8.97
2024-02-01T06:55:45.290Z,9.63
2024-02-01T06:58:17.726Z,8.87
2024-02-01T07:01:03.264Z,8.90
2024-02-01T07:03:45.947Z,10.13
2024-02-01T07:06:29.791Z,9.60
2024-02-01T07:09:18.274Z,9.27
2024-02-01T07:12:00.987Z,9.20
2024-02-01T07:14:38.311Z,9.20
2024-02-01T07:17:21.282Z,9.37
2024-02-01T07:19:57.421Z,8.67
2024-02-01T07:23:01.464Z,8.50
2024-02-01T07:25:48.807Z,8.93
2024-02-01T07:28:38.964Z,8.77
2024-02-01T07:31:25.904Z,10.07
2024-02-01T07:34:11.900Z,8.90
2024-02-01T07:36:58.349Z,9.03
2024-02-01T07:39:44.214Z,9.07
2024-02-01T07:42:31.498Z,9.50
2024-02-01T07:45:17.539Z,9.47
2024-02-01T07:48:04.109Z,8.97
2024-02-01T07:50:50.187Z,9.40
2024-02-01T07:53:36.158Z,9.70
2024-02-01T07:56:23.193Z,9.77
2024-02-01T07:58:54.592Z,8.63
2024-02-01T08:01:25.899Z,8.63
2024-02-01T08:04:13.982Z,9.83
2024-02-01T08:07:00.118Z,9.60
2024-02-01T08:09:29.227Z,8.87
2024-02-01T08:11:57.838Z,9.77
2024-02-01T08:14:28.523Z,8.67
2024-02-01T08:16:57.411Z,8.90
2024-02-01T08:19:34.652Z,9.47
2024-02-01T08:22:10.453Z,9.30
2024-02-01T08:24:39.162Z,8.00
2024-02-01T08:27:09.284Z,9.43
2024-02-01T08:29:40.867Z,9.13
2024-02-01T08:32:20.734Z,8.67
2024-02-01T08:34:49.653Z,9.17
2024-02-01T08:37:18.514Z,8.00
2024-02-01T08:39:47.716Z,7.60
2024-02-01T08:42:16.449Z,7.83
2024-02-01T08:44:46.325Z,6.90
2024-02-01T08:47:15.170Z,7.63
2024-02-01T08:49:43.941Z,8.07
2024-02-01T08:52:15.555Z,8.17
2024-02-01T08:54:48.488Z,7.40
2024-02-01T08:57:19.490Z,8.03
2024-02-01T08:59:49.471Z,7.53
2024-02-01T09:02:19.888Z,7.77
2024-02-01T09:04:53.805Z,7.47
2024-02-01T09:07:22.713Z,7.80
2024-02-01T09:09:51.794Z,7.70
2024-02-01T09:12:23.164Z,7.33
2024-02-01T09:14:53.099Z,7.20
2024-02-01T09:17:21.698Z,7.37
2024-02-01T09:19:50.209Z,6.97
2024-02-01T09:22:18.731Z,6.87
2024-02-01T09:24:47.306Z,7.17
2024-02-01T09:27:15.917Z,7.20
2024-02-01T09:29:46.126Z,7.03
2024-02-01T09:32:16.981Z,7.63
2024-02-01T09:34:46.097Z,6.57
2024-02-01T09:37:24.950Z,7.13
2024-02-01T09:39:53.907Z,6.80
2024-02-01T09:42:22.669Z,7.47
2024-02-01T09:44:51.511Z,7.60
2024-02-01T09:47:23.624Z,7.57
2024-02-01T09:49:52.179Z,7.80
2024-02-01T09:52:21.108Z,7.83
2024-02-01T09:54:49.797Z,7.57
2024-02-01T09:57:19.255Z,7.40
2024-02-01T09:59:47.637Z,8.13
2024-02-01T10:02:19.726Z,6.87
2024-02-01T10:04:52.538Z,7.27
2024-02-01T10:07:20.953Z,7.00
2024-02-01T10:09:53.394Z,8.13
2024-02-01T10:12:26.957Z,7.30
2024-02-01T10:14:55.532Z,7.30
2024-02-01T10:17:24.480Z,7.67
2024-02-01T10:19:55.571Z,6.70
2024-02-01T10:22:24.038Z,7.07
2024-02-01T10:24:59.283Z,7.37
2024-02-01T10:27:29.709Z,6.73
2024-02-01T10:29:58.874Z,7.40
2024-02-01T10:32:30.234Z,6.30
2024-02-01T10:35:00.964Z,6.70
2024-02-01T10:37:31.425Z,6.33
2024-02-01T10:40:07.933Z,6.53
2024-02-01T10:42:38.166Z,5.83
2024-02-01T10:45:11.955Z,6.33
2024-02-01T10:47:46.704Z,5.73
2024-02-01T10:50:19.623Z,6.10
2024-02-01T10:52:51.887Z,6.50
2024-02-01T10:55:21.816Z,7.33
2024-02-01T10:57:50.611Z,7.50
2024-02-01T11:00:22.740Z,7.47
2024-02-01T11:02:54.354Z,7.77
2024-02-01T11:05:31.142Z,7.57
2024-02-01T11:08:00.086Z,7.10
2024-02-01T11:10:29.446Z,7.00
2024-02-01T11:13:01.218Z,6.83
2024-02-01T11:15:32.402Z,7.20
2024-02-01T11:18:12.808Z,8.93
2024-02-01T11:20:42.752Z,8.13
2024-02-01T11:23:12.310Z,7.70
2024-02-01T11:25:41.959Z,7.63
2024-02-01T11:28:13.324Z,7.50
2024-02-01T11:31:00.766Z,8.23
2024-02-01T11:33:35.986Z,9.13
2024-02-01T11:36:08.150Z,8.17
2024-02-01T11:38:36.729Z,8.17
2024-02-01T11:41:05.372Z,8.13
2024-02-01T11:43:34.583Z,8.13
2024-02-01T11:46:03.323Z,7.53
2024-02-01T11:48:32.005Z,7.17
2024-02-01T11:51:01.207Z,6.60
2024-02-01T11:53:31.662Z,6.90
2024-02-01T11:56:00.452Z,7.10
2024-02-01T11:58:32.760Z,6.77
2024-02-01T12:01:07.030Z,6.40
2024-02-01T12:03:50.314Z,6.80
2024-02-01T12:06:20.966Z,6.50
2024-02-01T12:08:51.259Z,7.10
2024-02-01T12:11:25.223Z,5.70
2024-02-01T12:13:55.984Z,6.27
2024-02-01T12:16:32.119Z,6.87
2024-02-01T12:19:01.460Z,6.77
2024-02-01T12:21:30.787Z,6.27
2024-02-01T12:24:00.960Z,6.13
2024-02-01T12:26:31.123Z,5.97
2024-02-01T12:29:00.980Z,5.33
2024-02-01T12:31:32.760Z,5.43
2024-02-01T12:34:02.291Z,5.83
2024-02-01T12:36:32.159Z,5.40
2024-02-01T12:39:02.547Z,5.20
2024-02-01T12:41:36.033Z,4.93
2024-02-01T12:44:05.061Z,5.00
2024-02-01T12:46:33.632Z,5.30
2024-02-01T12:49:03.942Z,5.07
2024-02-01T12:51:33.092Z,4.93
2024-02-01T12:54:03.530Z,4.37
2024-02-01T12:56:33.457Z,4.63
2024-02-01T12:59:03.973Z,5.47
2024-02-01T13:01:38.211Z,5.43
2024-02-01T13:04:07.648Z,5.50
2024-02-01T13:06:36.264Z,4.97
2024-02-01T13:09:09.958Z,5.60
2024-02-01T13:11:38.677Z,5.07
2024-02-01T13:14:07.308Z,5.13
2024-02-01T13:16:35.775Z,4.57
2024-02-01T13:19:09.922Z,5.43
2024-02-01T13:21:41.674Z,5.40
2024-02-01T13:24:12.052Z,6.27
2024-02-01T13:26:40.549Z,5.17
2024-02-01T13:29:15.085Z,6.00
2024-02-01T13:31:46.679Z,4.80
2024-02-01T13:34:15.235Z,5.80
2024-02-01T13:36:43.946Z,5.27
2024-02-01T13:39:14.039Z,7.50
2024-02-01T13:41:43.529Z,6.70
2024-02-01T13:44:12.102Z,6.57
2024-02-01T13:46:41.277Z,6.70
2024-02-01T13:49:11.103Z,6.40
2024-02-01T13:51:41.013Z,5.97
2024-02-01T13:54:10.078Z,8.77
2024-02-01T13:56:40.154Z,10.33
2024-02-01T13:59:08.621Z,7.53
2024-02-01T14:01:37.306Z,5.93
2024-02-01T14:04:06.665Z,6.23
2024-02-01T14:06:35.319Z,5.67
2024-02-01T14:09:07.863Z,5.80
2024-02-01T14:11:39.922Z,5.30
2024-02-01T14:14:10.493Z,6.27
2024-02-01T14:16:40.207Z,5.33
2024-02-01T14:19:08.909Z,5.03
2024-02-01T14:21:39.104Z,5.77
2024-02-01T14:24:11.601Z,5.97
2024-02-01T14:26:40.028Z,5.17
2024-02-01T14:29:10.054Z,4.93
2024-02-01T14:31:38.692Z,4.90
2024-02-01T14:34:07.288Z,4.83
2024-02-01T14:36:36.185Z,5.10
2024-02-01T14:39:22.460Z,5.20
2024-02-01T14:41:52.295Z,5.07
2024-02-01T14:44:22.581Z,5.00
2024-02-01T14:46:51.028Z,5.13
2024-02-01T14:49:19.550Z,5.70
2024-02-01T14:51:48.297Z,5.13
2024-02-01T14:54:16.807Z,5.30
2024-02-01T14:56:45.429Z,5.30
2024-02-01T14:59:14.076Z,4.50
2024-02-01T15:01:44.430Z,4.90
2024-02-01T15:04:13.131Z,4.97
2024-02-01T15:06:47.766Z,4.53
2024-02-01T15:09:16.638Z,4.20
2024-02-01T15:11:50.973Z,5.23
2024-02-01T15:14:19.996Z,4.17
2024-02-01T15:16:50.397Z,5.23
2024-02-01T15:19:18.970Z,5.77
2024-02-01T15:21:50.222Z,4.73
2024-02-01T15:24:19.173Z,6.10
2024-02-01T15:26:47.716Z,8.17
2024-02-01T15:29:18.358Z,10.07
2024-02-01T15:31:47.168Z,10.00
2024-02-01T15:34:17.482Z,8.03
2024-02-01T15:36:46.222Z,6.80
2024-02-01T15:39:16.258Z,5.07
2024-02-01T15:41:45.496Z,4.70
2024-02-01T15:44:14.397Z,5.67
2024-02-01T15:46:44.451Z,5.27
2024-02-01T15:49:13.506Z,5.10
2024-02-01T15:51:44.630Z,5.53
2024-02-01T15:54:13.148Z,5.50
2024-02-01T15:56:41.597Z,5.50
2024-02-01T15:59:10.093Z,4.70
2024-02-01T16:01:38.592Z,4.67
2024-02-01T16:04:07.148Z,4.53
2024-02-01T16:06:35.631Z,3.53
2024-02-01T16:09:07.589Z,2.90
2024-02-01T16:11:39.089Z,3.60
2024-02-01T16:14:10.518Z,3.43
2024-02-01T16:16:42.384Z,2.70
2024-02-01T16:19:30.503Z,2.87
2024-02-01T16:21:59.035Z,5.60
2024-02-01T16:24:56.547Z,3.60
2024-02-01T16:27:59.085Z,4.47
2024-02-01T16:31:06.233Z,3.70
2024-02-01T16:33:44.497Z,2.80
2024-02-01T16:36:43.505Z,3.67
2024-02-01T16:39:18.739Z,3.93
2024-02-01T16:41:49.761Z,3.30
2024-02-01T16:44:46.210Z,3.10
2024-02-01T16:47:27.370Z,4.23
2024-02-01T16:49:57.123Z,3.83
2024-02-01T16:52:46.540Z,5.00
2024-02-01T16:55:41.031Z,4.27
2024-02-01T16:58:48.711Z,4.43
2024-02-01T17:01:38.318Z,7.00
2024-02-01T17:04:14.127Z,3.90
2024-02-01T17:06:43.728Z,3.30
2024-02-01T17:09:15.939Z,3.03
2024-02-01T17:11:55.460Z,2.37
2024-02-01T17:14:35.469Z,3.03
2024-02-01T17:17:06.513Z,3.00
2024-02-01T17:19:37.064Z,3.67
2024-02-01T17:22:14.216Z,2.83
2024-02-01T17:24:43.265Z,3.43
2024-02-01T17:27:12.164Z,3.77
2024-02-01T17:29:42.659Z,3.63
2024-02-01T17:32:12.942Z,3.60
2024-02-01T17:34:42.647Z,3.20
2024-02-01T17:37:36.992Z,4.00
2024-02-01T17:40:14.140Z,4.83
2024-02-01T17:42:44.173Z,4.37
2024-02-01T17:45:36.841Z,4.73
2024-02-01T17:48:15.000Z,4.67
2024-02-01T17:50:47.778Z,4.80
2024-02-01T17:53:19.861Z,4.43
2024-02-01T17:55:52.421Z,5.03
2024-02-01T17:58:42.567Z,4.67
2024-02-01T18:01:20.653Z,4.83
2024-02-01T18:03:52.539Z,5.03
2024-02-01T18:06:40.204Z,4.73
2024-02-01T18:09:11.062Z,4.93
2024-02-01T18:11:46.543Z,5.37
2024-02-01T18:14:16.322Z,5.23
2024-02-01T18:16:47.243Z,5.07
2024-02-01T18:19:23.047Z,4.87
2024-02-01T18:21:52.742Z,4.63
2024-02-01T18:24:37.776Z,5.37
2024-02-01T18:27:09.434Z,4.57
2024-02-01T18:29:55.329Z,4.80
2024-02-01T18:32:30.123Z,4.50
2024-02-01T18:35:00.215Z,4.77
2024-02-01T18:37:30.339Z,5.33
2024-02-01T18:39:59.109Z,4.77
2024-02-01T18:43:00.734Z,4.53
2024-02-01T18:45:41.490Z,5.13
2024-02-01T18:48:33.419Z,5.03
2024-02-01T18:51:05.667Z,6.00
2024-02-01T18:53:43.286Z,6.90
2024-02-01T18:56:23.508Z,5.90
2024-02-01T18:58:52.901Z,5.90
2024-02-01T19:01:23.056Z,5.97
2024-02-01T19:04:13.332Z,6.13
2024-02-01T19:06:43.588Z,5.80
2024-02-01T19:09:38.000Z,6.17
2024-02-01T19:12:10.200Z,11.00
2024-02-01T19:14:44.085Z,9.03
2024-02-01T19:17:23.402Z,6.47
2024-02-01T19:19:53.873Z,6.17
2024-02-01T19:22:37.312Z,5.90
2024-02-01T19:25:06.344Z,6.33
2024-02-01T19:27:40.815Z,6.00
2024-02-01T19:30:19.440Z,6.20
2024-02-01T19:32:50.309Z,6.43
2024-02-01T19:35:30.461Z,6.60
2024-02-01T19:38:06.004Z,5.83
2024-02-01T19:40:34.580Z,5.90
2024-02-01T19:43:03.714Z,7.50
2024-02-01T19:45:32.450Z,6.30
2024-02-01T19:48:01.203Z,6.43
2024-02-01T19:50:31.490Z,6.90
2024-02-01T19:53:00.025Z,6.07
2024-02-01T19:55:31.013Z,6.10
2024-02-01T19:58:00.215Z,6.73
2024-02-01T20:00:29.736Z,5.83
2024-02-01T20:02:58.494Z,5.53
2024-02-01T20:05:27.166Z,5.27
2024-02-01T20:07:57.347Z,5.50
2024-02-01T20:10:26.196Z,5.60
2024-02-01T20:12:55.034Z,6.90
2024-02-01T20:15:23.972Z,8.13
2024-02-01T20:17:54.992Z,6.40
2024-02-01T20:20:24.865Z,7.07
2024-02-01T20:22:54.699Z,6.67
2024-02-01T20:25:29.067Z,6.43
2024-02-01T20:28:02.422Z,6.77
2024-02-01T20:30:33.895Z,7.10
2024-02-01T20:33:02.990Z,6.63
2024-02-01T20:35:37.180Z,5.80
2024-02-01T20:38:09.757Z,6.97
2024-02-01T20:40:42.961Z,9.40
2024-02-01T20:43:17.469Z,7.83
2024-02-01T20:45:57.510Z,7.70
2024-02-01T20:48:41.618Z,8.03
2024-02-01T20:51:32.906Z,9.20
2024-02-01T20:54:01.737Z,8.00
2024-02-01T20:56:33.548Z,9.70
2024-02-01T20:59:03.758Z,8.97
2024-02-01T21:01:41.609Z,9.37
2024-02-01T21:04:23.739Z,12.27
2024-02-01T21:06:54.219Z,10.77
2024-02-01T21:09:30.444Z,9.20
2024-02-01T21:12:00.687Z,8.10
2024-02-01T21:14:47.955Z,8.03
2024-02-01T21:17:22.231Z,8.47
2024-02-01T21:19:52.160Z,7.70
2024-02-01T21:22:21.851Z,8.40
2024-02-01T21:24:57.978Z,7.97
2024-02-01T21:27:28.270Z,8.77
2024-02-01T21:29:56.894Z,8.73
2024-02-01T21:32:25.519Z,8.87
2024-02-01T21:34:55.249Z,8.93
2024-02-01T21:37:24.290Z,9.10
2024-02-01T21:39:56.633Z,9.77
2024-02-01T21:43:12.288Z,9.93
2024-02-01T21:45:43.624Z,9.27
2024-02-01T21:48:13.695Z,8.53
2024-02-01T21:50:44.065Z,9.57
2024-02-01T21:53:13.341Z,10.63
2024-02-01T21:55:43.695Z,9.70
2024-02-01T21:58:15.168Z,9.93
2024-02-01T22:00:44.127Z,10.43
2024-02-01T22:03:14.886Z,8.63
2024-02-01T22:05:43.673Z,9.43
2024-02-01T22:08:12.245Z,10.50
2024-02-01T22:10:42.583Z,9.37
2024-02-01T22:13:11.490Z,10.33
2024-02-01T22:15:42.491Z,10.70
2024-02-01T22:18:11.301Z,9.73
2024-02-01T22:20:39.857Z,9.77
2024-02-01T22:23:08.691Z,10.67
2024-02-01T22:25:37.178Z,10.73
2024-02-01T22:28:06.431Z,10.23
2024-02-01T22:30:35.398Z,10.10
2024-02-01T22:33:06.170Z,9.70
2024-02-01T22:35:35.455Z,10.03
2024-02-01T22:38:04.002Z,10.50
2024-02-01T22:40:32.554Z,10.03
2024-02-01T22:43:01.082Z,10.10
2024-02-01T22:45:30.480Z,8.67
2024-02-01T22:47:59.096Z,9.93
2024-02-01T22:50:29.136Z,9.57
2024-02-01T22:52:57.646Z,9.37
2024-02-01T22:55:26.653Z,8.97
2024-02-01T22:57:55.229Z,8.87
2024-02-01T23:00:25.566Z,8.97
2024-02-01T23:02:54.984Z,8.77
2024-02-01T23:05:23.602Z,9.10
2024-02-01T23:07:53.534Z,9.43
2024-02-01T23:10:22.618Z,9.10
2024-02-01T23:12:51.188Z,8.87
2024-02-01T23:15:19.762Z,10.10
2024-02-01T23:17:48.454Z,9.20
2024-02-01T23:20:18.231Z,9.43
2024-02-01T23:22:47.585Z,9.30
2024-02-01T23:25:18.482Z,9.50
2024-02-01T23:27:46.959Z,9.70
2024-02-01T23:30:16.991Z,9.60
2024-02-01T23:32:45.882Z,9.13
2024-02-01T23:35:14.768Z,9.93
2024-02-01T23:37:44.889Z,10.10
2024-02-01T23:40:15.060Z,9.13
2024-02-01T23:42:45.073Z,9.87
2024-02-01T23:45:13.655Z,10.43
2024-02-01T23:47:42.204Z,10.17
2024-02-01T23:50:11.401Z,10.00
2024-02-01T23:52:41.069Z,10.07
2024-02-01T23:55:10.830Z,10.57
2024-02-01T23:57:39.278Z,9.87
